sensor_id;sensor_type;location;lat;lon;timestamp;temperature;humidity
16999;DHT22;10211;49.476;11.010;2022-09-24T00:01:22;9.90;99.90
16999;DHT22;10211;49.476;11.010;2022-09-24T00:03:51;9.90;99.90
16999;DHT22;10211;49.476;11.010;2022-09-24T00:06:18;9.90;99.90
16999;DHT22;10211;49.476;11.010;2022-09-24T00:08:45;10.00;99.90
16999;DHT22;10211;49.476;11.010;2022-09-24T00:11:13;10.00;99.90
16999;DHT22;10211;49.476;11.010;2022-09-24T00:13:41;10.00;99.90
16999;DHT22;10211;49.476;11.010;2022-09-24T00:16:11;10.00;99.90
16999;DHT22;10211;49.476;11.010;2022-09-24T00:18:39;10.00;99.90
16999;DHT22;10211;49.476;11.010;2022-09-24T00:21:14;10.00;99.90
16999;DHT22;10211;49.476;11.010;2022-09-24T00:23:41;10.00;99.90
16999;DHT22;10211;49.476;11.010;2022-09-24T00:26:09;10.10;99.90
16999;DHT22;10211;49.476;11.010;2022-09-24T00:28:54;10.10;99.90
16999;DHT22;10211;49.476;11.010;2022-09-24T00:31:22;10.10;99.90
16999;DHT22;10211;49.476;11.010;2022-09-24T00:33:49;10.10;99.90
16999;DHT22;10211;49.476;11.010;2022-09-24T00:36:17;10.10;99.90
16999;DHT22;10211;49.476;11.010;2022-09-24T00:38:46;10.10;99.90
16999;DHT22;10211;49.476;11.010;2022-09-24T00:41:13;10.10;99.90
16999;DHT22;10211;49.476;11.010;2022-09-24T00:43:40;10.10;99.90
16999;DHT22;10211;49.476;11.010;2022-09-24T00:46:13;10.10;99.90
16999;DHT22;10211;49.476;11.010;2022-09-24T00:48:42;10.10;99.90
16999;DHT22;10211;49.476;11.010;2022-09-24T00:51:11;10.10;99.90
16999;DHT22;10211;49.476;11.010;2022-09-24T00:53:39;10.10;99.90
16999;DHT22;10211;49.476;11.010;2022-09-24T00:56:10;10.10;99.90
16999;DHT22;10211;49.476;11.010;2022-09-24T00:58:42;10.20;99.90
16999;DHT22;10211;49.476;11.010;2022-09-24T01:01:10;10.10;99.90
16999;DHT22;10211;49.476;11.010;2022-09-24T01:03:39;10.10;99.90
16999;DHT22;10211;49.476;11.010;2022-09-24T01:06:08;10.20;99.90
16999;DHT22;10211;49.476;11.010;2022-09-24T01:08:35;10.20;99.90
16999;DHT22;10211;49.476;11.010;2022-09-24T01:11:28;10.20;99.90
16999;DHT22;10211;49.476;11.010;2022-09-24T01:14:25;10.20;99.90
16999;DHT22;10211;49.476;11.010;2022-09-24T01:17:02;10.20;99.90
16999;DHT22;10211;49.476;11.010;2022-09-24T01:19:48;10.20;99.90
16999;DHT22;10211;49.476;11.010;2022-09-24T01:22:30;10.20;99.90
16999;DHT22;10211;49.476;11.010;2022-09-24T01:25:02;10.20;99.90
16999;DHT22;10211;49.476;11.010;2022-09-24T01:27:41;10.20;99.90
16999;DHT22;10211;49.476;11.010;2022-09-24T01:30:12;10.10;99.90
16999;DHT22;10211;49.476;11.010;2022-09-24T01:32:42;10.10;99.90
16999;DHT22;10211;49.476;11.010;2022-09-24T01:35:15;10.10;99.90
16999;DHT22;10211;49.476;11.010;2022-09-24T01:37:47;10.10;99.90
16999;DHT22;10211;49.476;11.010;2022-09-24T01:40:16;10.00;99.90
16999;DHT22;10211;49.476;11.010;2022-09-24T01:42:44;10.00;99.90
16999;DHT22;10211;49.476;11.010;2022-09-24T01:45:15;10.00;99.90
16999;DHT22;10211;49.476;11.010;2022-09-24T01:47:42;9.90;99.90
16999;DHT22;10211;49.476;11.010;2022-09-24T01:50:13;9.80;99.90
16999;DHT22;10211;49.476;11.010;2022-09-24T01:52:45;9.80;99.90
16999;DHT22;10211;49.476;11.010;2022-09-24T01:55:17;9.70;99.90
16999;DHT22;10211;49.476;11.010;2022-09-24T01:57:48;9.70;99.90
16999;DHT22;10211;49.476;11.010;2022-09-24T02:00:18;9.70;99.90
16999;DHT22;10211;49.476;11.010;2022-09-24T02:02:49;9.70;99.90
16999;DHT22;10211;49.476;11.010;2022-09-24T02:05:23;9.70;99.90
16999;DHT22;10211;49.476;11.010;2022-09-24T02:07:54;9.70;99.90
16999;DHT22;10211;49.476;11.010;2022-09-24T02:10:23;9.70;99.90
16999;DHT22;10211;49.476;11.010;2022-09-24T02:12:56;9.80;99.90
16999;DHT22;10211;49.476;11.010;2022-09-24T02:15:28;9.70;99.90
16999;DHT22;10211;49.476;11.010;2022-09-24T02:17:57;9.80;99.90
16999;DHT22;10211;49.476;11.010;2022-09-24T02:20:26;9.80;99.90
16999;DHT22;10211;49.476;11.010;2022-09-24T02:22:55;9.80;99.90
16999;DHT22;10211;49.476;11.010;2022-09-24T02:25:28;9.70;99.90
16999;DHT22;10211;49.476;11.010;2022-09-24T02:27:55;9.70;99.90
16999;DHT22;10211;49.476;11.010;2022-09-24T02:30:22;9.70;99.90
16999;DHT22;10211;49.476;11.010;2022-09-24T02:32:52;9.70;99.90
16999;DHT22;10211;49.476;11.010;2022-09-24T02:35:20;9.70;99.90
16999;DHT22;10211;49.476;11.010;2022-09-24T02:37:47;9.60;99.90
16999;DHT22;10211;49.476;11.010;2022-09-24T02:40:13;9.60;99.90
16999;DHT22;10211;49.476;11.010;2022-09-24T02:42:41;9.60;99.90
16999;DHT22;10211;49.476;11.010;2022-09-24T02:45:08;9.60;99.90
16999;DHT22;10211;49.476;11.010;2022-09-24T02:47:35;9.60;99.90
16999;DHT22;10211;49.476;11.010;2022-09-24T02:50:05;9.50;99.90
16999;DHT22;10211;49.476;11.010;2022-09-24T02:52:32;9.50;99.90
16999;DHT22;10211;49.476;11.010;2022-09-24T02:54:58;9.50;99.90
16999;DHT22;10211;49.476;11.010;2022-09-24T02:57:26;9.50;99.90
16999;DHT22;10211;49.476;11.010;2022-09-24T02:59:53;9.50;99.90
16999;DHT22;10211;49.476;11.010;2022-09-24T03:02:19;9.50;99.90
16999;DHT22;10211;49.476;11.010;2022-09-24T03:04:46;9.60;99.90
16999;DHT22;10211;49.476;11.010;2022-09-24T03:07:14;9.50;99.90
16999;DHT22;10211;49.476;11.010;2022-09-24T03:09:41;9.60;99.90
16999;DHT22;10211;49.476;11.010;2022-09-24T03:12:08;9.60;99.90
16999;DHT22;10211;49.476;11.010;2022-09-24T03:14:35;9.60;99.90
16999;DHT22;10211;49.476;11.010;2022-09-24T03:17:01;9.60;99.90
16999;DHT22;10211;49.476;11.010;2022-09-24T03:19:28;9.60;99.90
16999;DHT22;10211;49.476;11.010;2022-09-24T03:21:55;9.70;99.90
16999;DHT22;10211;49.476;11.010;2022-09-24T03:24:23;9.70;99.90
16999;DHT22;10211;49.476;11.010;2022-09-24T03:26:50;9.70;99.90
16999;DHT22;10211;49.476;11.010;2022-09-24T03:29:16;9.60;99.90
16999;DHT22;10211;49.476;11.010;2022-09-24T03:32:03;9.60;99.90
16999;DHT22;10211;49.476;11.010;2022-09-24T03:34:29;9.60;99.90
16999;DHT22;10211;49.476;11.010;2022-09-24T03:36:58;9.60;99.90
16999;DHT22;10211;49.476;11.010;2022-09-24T03:39:26;9.50;99.90
16999;DHT22;10211;49.476;11.010;2022-09-24T03:41:53;9.60;99.90
16999;DHT22;10211;49.476;11.010;2022-09-24T03:44:20;9.50;99.90
16999;DHT22;10211;49.476;11.010;2022-09-24T03:46:47;9.50;99.90
16999;DHT22;10211;49.476;11.010;2022-09-24T03:49:14;9.50;99.90
16999;DHT22;10211;49.476;11.010;2022-09-24T03:51:41;9.50;99.90
16999;DHT22;10211;49.476;11.010;2022-09-24T03:54:09;9.50;99.90
16999;DHT22;10211;49.476;11.010;2022-09-24T03:56:37;9.50;99.90
16999;DHT22;10211;49.476;11.010;2022-09-24T03:59:04;9.50;99.90
16999;DHT22;10211;49.476;11.010;2022-09-24T04:01:31;9.60;99.90
16999;DHT22;10211;49.476;11.010;2022-09-24T04:04:01;9.50;99.90
16999;DHT22;10211;49.476;11.010;2022-09-24T04:06:28;9.50;99.90
16999;DHT22;10211;49.476;11.010;2022-09-24T04:08:55;9.50;99.90
16999;DHT22;10211;49.476;11.010;2022-09-24T04:11:22;9.50;99.90
16999;DHT22;10211;49.476;11.010;2022-09-24T04:13:51;9.50;99.90
16999;DHT22;10211;49.476;11.010;2022-09-24T04:16:18;9.60;99.90
16999;DHT22;10211;49.476;11.010;2022-09-24T04:18:44;9.60;99.90
16999;DHT22;10211;49.476;11.010;2022-09-24T04:21:13;9.60;99.90
16999;DHT22;10211;49.476;11.010;2022-09-24T04:23:39;9.60;99.90
16999;DHT22;10211;49.476;11.010;2022-09-24T04:26:06;9.60;99.90
16999;DHT22;10211;49.476;11.010;2022-09-24T04:28:35;9.60;99.90
16999;DHT22;10211;49.476;11.010;2022-09-24T04:31:03;9.60;99.90
16999;DHT22;10211;49.476;11.010;2022-09-24T04:33:30;9.50;99.90
16999;DHT22;10211;49.476;11.010;2022-09-24T04:35:57;9.50;99.90
16999;DHT22;10211;49.476;11.010;2022-09-24T04:38:23;9.50;99.90
16999;DHT22;10211;49.476;11.010;2022-09-24T04:40:50;9.40;99.90
16999;DHT22;10211;49.476;11.010;2022-09-24T04:43:19;9.30;99.90
16999;DHT22;10211;49.476;11.010;2022-09-24T04:45:46;9.20;99.90
16999;DHT22;10211;49.476;11.010;2022-09-24T04:48:14;9.10;99.90
16999;DHT22;10211;49.476;11.010;2022-09-24T04:50:40;9.00;99.90
16999;DHT22;10211;49.476;11.010;2022-09-24T04:53:07;8.90;99.90
16999;DHT22;10211;49.476;11.010;2022-09-24T04:55:34;8.90;99.90
16999;DHT22;10211;49.476;11.010;2022-09-24T04:58:01;8.80;99.90
16999;DHT22;10211;49.476;11.010;2022-09-24T05:00:28;8.70;99.90
16999;DHT22;10211;49.476;11.010;2022-09-24T05:02:57;8.70;99.90
16999;DHT22;10211;49.476;11.010;2022-09-24T05:05:26;8.60;99.90
16999;DHT22;10211;49.476;11.010;2022-09-24T05:07:52;8.60;99.90
16999;DHT22;10211;49.476;11.010;2022-09-24T05:10:21;8.50;99.90
16999;DHT22;10211;49.476;11.010;2022-09-24T05:12:48;8.50;99.90
16999;DHT22;10211;49.476;11.010;2022-09-24T05:15:14;8.50;99.90
16999;DHT22;10211;49.476;11.010;2022-09-24T05:17:43;8.40;99.90
16999;DHT22;10211;49.476;11.010;2022-09-24T05:20:10;8.40;99.90
16999;DHT22;10211;49.476;11.010;2022-09-24T05:22:41;8.30;99.90
16999;DHT22;10211;49.476;11.010;2022-09-24T05:25:08;8.30;99.90
16999;DHT22;10211;49.476;11.010;2022-09-24T05:27:35;8.30;99.90
16999;DHT22;10211;49.476;11.010;2022-09-24T05:30:00;8.30;99.90
16999;DHT22;10211;49.476;11.010;2022-09-24T05:32:27;8.30;99.90
16999;DHT22;10211;49.476;11.010;2022-09-24T05:34:54;8.30;99.90
16999;DHT22;10211;49.476;11.010;2022-09-24T05:37:21;8.40;99.90
16999;DHT22;10211;49.476;11.010;2022-09-24T05:39:50;8.40;99.90
16999;DHT22;10211;49.476;11.010;2022-09-24T05:42:16;8.50;99.90
16999;DHT22;10211;49.476;11.010;2022-09-24T05:44:43;8.60;99.90
16999;DHT22;10211;49.476;11.010;2022-09-24T05:47:10;8.80;99.90
16999;DHT22;10211;49.476;11.010;2022-09-24T05:49:37;8.90;99.90
16999;DHT22;10211;49.476;11.010;2022-09-24T05:52:04;9.00;99.90
16999;DHT22;10211;49.476;11.010;2022-09-24T05:54:31;9.10;99.90
16999;DHT22;10211;49.476;11.010;2022-09-24T05:56:59;9.20;99.90
16999;DHT22;10211;49.476;11.010;2022-09-24T05:59:26;9.30;99.90
16999;DHT22;10211;49.476;11.010;2022-09-24T06:01:52;9.40;99.90
16999;DHT22;10211;49.476;11.010;2022-09-24T06:04:19;9.40;99.90
16999;DHT22;10211;49.476;11.010;2022-09-24T06:06:46;9.50;99.90
16999;DHT22;10211;49.476;11.010;2022-09-24T06:09:13;9.50;99.90
16999;DHT22;10211;49.476;11.010;2022-09-24T06:11:40;9.60;99.90
16999;DHT22;10211;49.476;11.010;2022-09-24T06:14:08;9.70;99.90
16999;DHT22;10211;49.476;11.010;2022-09-24T06:16:36;9.70;99.90
16999;DHT22;10211;49.476;11.010;2022-09-24T06:19:03;9.80;99.90
16999;DHT22;10211;49.476;11.010;2022-09-24T06:21:29;9.80;99.90
16999;DHT22;10211;49.476;11.010;2022-09-24T06:23:56;9.70;99.90
16999;DHT22;10211;49.476;11.010;2022-09-24T06:26:23;9.80;99.90
16999;DHT22;10211;49.476;11.010;2022-09-24T06:28:51;9.80;99.90
16999;DHT22;10211;49.476;11.010;2022-09-24T06:31:20;9.90;99.90
16999;DHT22;10211;49.476;11.010;2022-09-24T06:33:46;9.90;99.90
16999;DHT22;10211;49.476;11.010;2022-09-24T06:36:13;9.80;99.90
16999;DHT22;10211;49.476;11.010;2022-09-24T06:38:40;9.80;99.90
16999;DHT22;10211;49.476;11.010;2022-09-24T06:41:06;9.80;99.90
16999;DHT22;10211;49.476;11.010;2022-09-24T06:43:34;9.80;99.90
16999;DHT22;10211;49.476;11.010;2022-09-24T06:46:01;9.80;99.90
16999;DHT22;10211;49.476;11.010;2022-09-24T06:48:30;9.90;99.90
16999;DHT22;10211;49.476;11.010;2022-09-24T06:50:57;9.90;99.90
16999;DHT22;10211;49.476;11.010;2022-09-24T06:53:24;10.00;99.90
16999;DHT22;10211;49.476;11.010;2022-09-24T06:55:55;10.20;99.90
16999;DHT22;10211;49.476;11.010;2022-09-24T06:58:23;10.40;99.90
16999;DHT22;10211;49.476;11.010;2022-09-24T07:00:51;10.60;99.90
16999;DHT22;10211;49.476;11.010;2022-09-24T07:03:19;10.80;99.90
16999;DHT22;10211;49.476;11.010;2022-09-24T07:05:47;11.00;99.90
16999;DHT22;10211;49.476;11.010;2022-09-24T07:08:14;11.20;99.90
16999;DHT22;10211;49.476;11.010;2022-09-24T07:10:42;11.50;99.90
16999;DHT22;10211;49.476;11.010;2022-09-24T07:13:10;11.80;99.90
16999;DHT22;10211;49.476;11.010;2022-09-24T07:15:37;12.20;99.90
16999;DHT22;10211;49.476;11.010;2022-09-24T07:18:04;12.60;99.90
16999;DHT22;10211;49.476;11.010;2022-09-24T07:20:30;12.90;99.90
16999;DHT22;10211;49.476;11.010;2022-09-24T07:23:03;13.30;99.90
16999;DHT22;10211;49.476;11.010;2022-09-24T07:25:30;13.70;99.90
16999;DHT22;10211;49.476;11.010;2022-09-24T07:28:00;13.90;99.90
16999;DHT22;10211;49.476;11.010;2022-09-24T07:30:27;14.10;99.90
16999;DHT22;10211;49.476;11.010;2022-09-24T07:32:54;14.30;99.90
16999;DHT22;10211;49.476;11.010;2022-09-24T07:35:21;14.30;99.90
16999;DHT22;10211;49.476;11.010;2022-09-24T07:37:54;14.40;99.90
16999;DHT22;10211;49.476;11.010;2022-09-24T07:40:23;14.50;99.90
16999;DHT22;10211;49.476;11.010;2022-09-24T07:42:51;14.70;99.90
16999;DHT22;10211;49.476;11.010;2022-09-24T07:45:20;14.80;99.90
16999;DHT22;10211;49.476;11.010;2022-09-24T07:47:46;14.90;99.90
16999;DHT22;10211;49.476;11.010;2022-09-24T07:50:13;15.10;99.90
16999;DHT22;10211;49.476;11.010;2022-09-24T07:52:41;15.50;99.90
16999;DHT22;10211;49.476;11.010;2022-09-24T07:55:08;15.60;99.90
16999;DHT22;10211;49.476;11.010;2022-09-24T07:57:45;15.70;99.90
16999;DHT22;10211;49.476;11.010;2022-09-24T08:00:13;15.90;99.90
16999;DHT22;10211;49.476;11.010;2022-09-24T08:02:40;16.40;99.90
16999;DHT22;10211;49.476;11.010;2022-09-24T08:05:08;16.70;99.90
16999;DHT22;10211;49.476;11.010;2022-09-24T08:07:34;16.80;99.90
16999;DHT22;10211;49.476;11.010;2022-09-24T08:10:01;16.60;99.90
16999;DHT22;10211;49.476;11.010;2022-09-24T08:12:28;16.30;99.90
16999;DHT22;10211;49.476;11.010;2022-09-24T08:14:56;16.10;99.90
16999;DHT22;10211;49.476;11.010;2022-09-24T08:17:23;16.10;99.90
16999;DHT22;10211;49.476;11.010;2022-09-24T08:19:51;16.10;99.90
16999;DHT22;10211;49.476;11.010;2022-09-24T08:22:21;16.20;99.90
16999;DHT22;10211;49.476;11.010;2022-09-24T08:24:48;16.40;99.90
16999;DHT22;10211;49.476;11.010;2022-09-24T08:27:15;16.70;99.90
16999;DHT22;10211;49.476;11.010;2022-09-24T08:29:42;16.90;99.90
16999;DHT22;10211;49.476;11.010;2022-09-24T08:32:10;17.10;99.90
16999;DHT22;10211;49.476;11.010;2022-09-24T08:34:37;17.10;99.90
16999;DHT22;10211;49.476;11.010;2022-09-24T08:37:05;17.30;99.90
16999;DHT22;10211;49.476;11.010;2022-09-24T08:39:32;17.30;99.90
16999;DHT22;10211;49.476;11.010;2022-09-24T08:42:00;17.10;99.90
16999;DHT22;10211;49.476;11.010;2022-09-24T08:44:34;17.00;99.90
16999;DHT22;10211;49.476;11.010;2022-09-24T08:47:32;17.20;99.90
16999;DHT22;10211;49.476;11.010;2022-09-24T08:50:07;17.30;99.90
16999;DHT22;10211;49.476;11.010;2022-09-24T08:52:45;17.30;99.90
16999;DHT22;10211;49.476;11.010;2022-09-24T08:55:19;17.40;99.90
16999;DHT22;10211;49.476;11.010;2022-09-24T08:57:53;17.30;99.90
16999;DHT22;10211;49.476;11.010;2022-09-24T09:00:23;17.30;99.90
16999;DHT22;10211;49.476;11.010;2022-09-24T09:02:59;17.40;99.90
16999;DHT22;10211;49.476;11.010;2022-09-24T09:05:44;17.30;99.90
16999;DHT22;10211;49.476;11.010;2022-09-24T09:08:22;17.30;99.90
16999;DHT22;10211;49.476;11.010;2022-09-24T09:10:55;17.20;99.90
16999;DHT22;10211;49.476;11.010;2022-09-24T09:13:25;17.20;99.90
16999;DHT22;10211;49.476;11.010;2022-09-24T09:16:00;17.30;99.90
16999;DHT22;10211;49.476;11.010;2022-09-24T09:18:34;17.40;99.90
16999;DHT22;10211;49.476;11.010;2022-09-24T09:21:09;17.60;99.90
16999;DHT22;10211;49.476;11.010;2022-09-24T09:23:45;17.80;99.80
16999;DHT22;10211;49.476;11.010;2022-09-24T09:26:12;18.00;99.60
16999;DHT22;10211;49.476;11.010;2022-09-24T09:28:40;18.40;99.00
16999;DHT22;10211;49.476;11.010;2022-09-24T09:31:18;18.60;98.70
16999;DHT22;10211;49.476;11.010;2022-09-24T09:34:03;19.00;98.30
16999;DHT22;10211;49.476;11.010;2022-09-24T09:36:42;19.60;97.70
16999;DHT22;10211;49.476;11.010;2022-09-24T09:39:21;20.20;95.70
16999;DHT22;10211;49.476;11.010;2022-09-24T09:41:54;20.20;94.10
16999;DHT22;10211;49.476;11.010;2022-09-24T09:44:24;20.00;94.80
16999;DHT22;10211;49.476;11.010;2022-09-24T09:46:56;20.00;94.60
16999;DHT22;10211;49.476;11.010;2022-09-24T09:49:31;20.20;94.70
16999;DHT22;10211;49.476;11.010;2022-09-24T09:52:01;20.30;94.10
16999;DHT22;10211;49.476;11.010;2022-09-24T09:54:36;20.20;93.70
16999;DHT22;10211;49.476;11.010;2022-09-24T09:57:11;20.10;93.70
16999;DHT22;10211;49.476;11.010;2022-09-24T09:59:40;19.80;94.40
16999;DHT22;10211;49.476;11.010;2022-09-24T10:02:09;19.70;93.60
16999;DHT22;10211;49.476;11.010;2022-09-24T10:04:46;19.70;93.40
16999;DHT22;10211;49.476;11.010;2022-09-24T10:07:15;19.90;93.50
16999;DHT22;10211;49.476;11.010;2022-09-24T10:09:44;19.90;93.50
16999;DHT22;10211;49.476;11.010;2022-09-24T10:12:15;19.90;93.00
16999;DHT22;10211;49.476;11.010;2022-09-24T10:14:43;19.80;93.10
16999;DHT22;10211;49.476;11.010;2022-09-24T10:17:12;19.70;93.40
16999;DHT22;10211;49.476;11.010;2022-09-24T10:19:43;19.30;93.30
16999;DHT22;10211;49.476;11.010;2022-09-24T10:22:19;19.20;94.10
16999;DHT22;10211;49.476;11.010;2022-09-24T10:24:47;19.10;94.00
16999;DHT22;10211;49.476;11.010;2022-09-24T10:27:28;19.00;94.40
16999;DHT22;10211;49.476;11.010;2022-09-24T10:29:56;19.10;95.40
16999;DHT22;10211;49.476;11.010;2022-09-24T10:32:41;19.10;94.70
16999;DHT22;10211;49.476;11.010;2022-09-24T10:35:20;19.20;94.50
16999;DHT22;10211;49.476;11.010;2022-09-24T10:37:52;19.20;94.10
16999;DHT22;10211;49.476;11.010;2022-09-24T10:40:21;19.10;94.80
16999;DHT22;10211;49.476;11.010;2022-09-24T10:42:58;18.90;94.30
16999;DHT22;10211;49.476;11.010;2022-09-24T10:45:36;18.80;95.00
16999;DHT22;10211;49.476;11.010;2022-09-24T10:48:11;18.60;94.70
16999;DHT22;10211;49.476;11.010;2022-09-24T10:51:14;18.50;95.10
16999;DHT22;10211;49.476;11.010;2022-09-24T10:53:51;18.40;95.70
16999;DHT22;10211;49.476;11.010;2022-09-24T10:56:32;18.30;95.20
16999;DHT22;10211;49.476;11.010;2022-09-24T10:59:21;18.20;95.50
16999;DHT22;10211;49.476;11.010;2022-09-24T11:02:02;18.40;96.40
16999;DHT22;10211;49.476;11.010;2022-09-24T11:04:43;18.50;95.50
16999;DHT22;10211;49.476;11.010;2022-09-24T11:07:36;18.70;95.40
16999;DHT22;10211;49.476;11.010;2022-09-24T11:10:19;18.70;94.90
16999;DHT22;10211;49.476;11.010;2022-09-24T11:12:55;18.80;94.60
16999;DHT22;10211;49.476;11.010;2022-09-24T11:15:42;19.00;94.50
16999;DHT22;10211;49.476;11.010;2022-09-24T11:18:27;19.40;94.40
16999;DHT22;10211;49.476;11.010;2022-09-24T11:21:02;19.90;93.00
16999;DHT22;10211;49.476;11.010;2022-09-24T11:23:47;20.60;93.10
16999;DHT22;10211;49.476;11.010;2022-09-24T11:26:26;21.00;91.40
16999;DHT22;10211;49.476;11.010;2022-09-24T11:29:22;21.50;91.80
16999;DHT22;10211;49.476;11.010;2022-09-24T11:32:02;21.80;90.70
16999;DHT22;10211;49.476;11.010;2022-09-24T11:34:51;22.10;89.50
16999;DHT22;10211;49.476;11.010;2022-09-24T11:37:32;22.30;88.40
16999;DHT22;10211;49.476;11.010;2022-09-24T11:40:30;22.10;86.20
16999;DHT22;10211;49.476;11.010;2022-09-24T11:43:11;22.10;87.10
16999;DHT22;10211;49.476;11.010;2022-09-24T11:45:50;22.10;86.00
16999;DHT22;10211;49.476;11.010;2022-09-24T11:48:39;22.30;87.00
16999;DHT22;10211;49.476;11.010;2022-09-24T11:51:17;22.40;84.30
16999;DHT22;10211;49.476;11.010;2022-09-24T11:53:53;22.40;83.40
16999;DHT22;10211;49.476;11.010;2022-09-24T11:56:25;22.30;83.40
16999;DHT22;10211;49.476;11.010;2022-09-24T11:59:09;22.10;84.10
16999;DHT22;10211;49.476;11.010;2022-09-24T12:01:43;22.10;83.90
16999;DHT22;10211;49.476;11.010;2022-09-24T12:04:16;22.00;85.40
16999;DHT22;10211;49.476;11.010;2022-09-24T12:06:52;22.10;83.50
16999;DHT22;10211;49.476;11.010;2022-09-24T12:09:25;22.20;84.00
16999;DHT22;10211;49.476;11.010;2022-09-24T12:11:57;22.30;82.80
16999;DHT22;10211;49.476;11.010;2022-09-24T12:14:30;22.20;82.60
16999;DHT22;10211;49.476;11.010;2022-09-24T12:17:06;22.10;83.50
16999;DHT22;10211;49.476;11.010;2022-09-24T12:19:41;21.80;83.50
16999;DHT22;10211;49.476;11.010;2022-09-24T12:22:21;21.70;85.30
16999;DHT22;10211;49.476;11.010;2022-09-24T12:24:50;22.10;86.10
16999;DHT22;10211;49.476;11.010;2022-09-24T12:27:21;23.00;85.40
16999;DHT22;10211;49.476;11.010;2022-09-24T12:29:56;23.70;81.50
16999;DHT22;10211;49.476;11.010;2022-09-24T12:32:48;23.80;81.20
16999;DHT22;10211;49.476;11.010;2022-09-24T12:35:30;23.60;80.30
16999;DHT22;10211;49.476;11.010;2022-09-24T12:38:02;23.30;81.20
16999;DHT22;10211;49.476;11.010;2022-09-24T12:40:51;23.10;81.20
16999;DHT22;10211;49.476;11.010;2022-09-24T12:43:22;23.00;82.10
16999;DHT22;10211;49.476;11.010;2022-09-24T12:45:57;23.00;83.50
16999;DHT22;10211;49.476;11.010;2022-09-24T12:48:28;23.00;83.50
16999;DHT22;10211;49.476;11.010;2022-09-24T12:50:57;22.90;81.70
16999;DHT22;10211;49.476;11.010;2022-09-24T12:53:31;22.80;82.50
16999;DHT22;10211;49.476;11.010;2022-09-24T12:55:59;22.70;83.00
16999;DHT22;10211;49.476;11.010;2022-09-24T12:58:29;22.50;83.60
16999;DHT22;10211;49.476;11.010;2022-09-24T13:01:10;22.30;82.90
16999;DHT22;10211;49.476;11.010;2022-09-24T13:03:39;22.20;83.10
16999;DHT22;10211;49.476;11.010;2022-09-24T13:06:29;22.10;83.00
16999;DHT22;10211;49.476;11.010;2022-09-24T13:08:57;21.80;83.40
16999;DHT22;10211;49.476;11.010;2022-09-24T13:11:30;21.80;84.40
16999;DHT22;10211;49.476;11.010;2022-09-24T13:13:59;21.70;85.80
16999;DHT22;10211;49.476;11.010;2022-09-24T13:16:28;21.50;84.90
16999;DHT22;10211;49.476;11.010;2022-09-24T13:18:58;21.30;85.40
16999;DHT22;10211;49.476;11.010;2022-09-24T13:21:28;21.10;86.20
16999;DHT22;10211;49.476;11.010;2022-09-24T13:23:56;21.00;87.90
16999;DHT22;10211;49.476;11.010;2022-09-24T13:26:31;20.80;88.70
16999;DHT22;10211;49.476;11.010;2022-09-24T13:29:00;20.60;88.50
16999;DHT22;10211;49.476;11.010;2022-09-24T13:31:38;20.40;89.50
16999;DHT22;10211;49.476;11.010;2022-09-24T13:34:16;20.40;89.80
16999;DHT22;10211;49.476;11.010;2022-09-24T13:36:47;20.80;90.00
16999;DHT22;10211;49.476;11.010;2022-09-24T13:39:16;21.10;89.90
16999;DHT22;10211;49.476;11.010;2022-09-24T13:41:52;21.50;88.60
16999;DHT22;10211;49.476;11.010;2022-09-24T13:44:26;21.60;87.60
16999;DHT22;10211;49.476;11.010;2022-09-24T13:46:59;21.60;87.60
16999;DHT22;10211;49.476;11.010;2022-09-24T13:49:29;21.80;85.50
16999;DHT22;10211;49.476;11.010;2022-09-24T13:52:10;21.80;85.90
16999;DHT22;10211;49.476;11.010;2022-09-24T13:54:47;21.80;84.40
16999;DHT22;10211;49.476;11.010;2022-09-24T13:57:20;21.50;86.20
16999;DHT22;10211;49.476;11.010;2022-09-24T13:59:47;21.30;85.70
16999;DHT22;10211;49.476;11.010;2022-09-24T14:02:24;21.10;86.40
16999;DHT22;10211;49.476;11.010;2022-09-24T14:04:55;20.90;86.70
16999;DHT22;10211;49.476;11.010;2022-09-24T14:07:24;20.70;86.40
16999;DHT22;10211;49.476;11.010;2022-09-24T14:10:01;20.70;86.80
16999;DHT22;10211;49.476;11.010;2022-09-24T14:12:28;20.70;85.80
16999;DHT22;10211;49.476;11.010;2022-09-24T14:14:55;20.70;86.90
16999;DHT22;10211;49.476;11.010;2022-09-24T14:17:24;20.70;85.90
16999;DHT22;10211;49.476;11.010;2022-09-24T14:19:54;20.70;86.50
16999;DHT22;10211;49.476;11.010;2022-09-24T14:22:23;20.70;86.90
16999;DHT22;10211;49.476;11.010;2022-09-24T14:24:55;20.70;89.10
16999;DHT22;10211;49.476;11.010;2022-09-24T14:27:24;20.90;87.50
16999;DHT22;10211;49.476;11.010;2022-09-24T14:29:54;21.00;85.40
16999;DHT22;10211;49.476;11.010;2022-09-24T14:32:26;20.80;85.90
16999;DHT22;10211;49.476;11.010;2022-09-24T14:34:55;20.70;87.00
16999;DHT22;10211;49.476;11.010;2022-09-24T14:37:25;20.80;86.80
16999;DHT22;10211;49.476;11.010;2022-09-24T14:39:58;20.70;86.30
16999;DHT22;10211;49.476;11.010;2022-09-24T14:42:29;20.60;87.90
16999;DHT22;10211;49.476;11.010;2022-09-24T14:44:58;20.30;88.10
16999;DHT22;10211;49.476;11.010;2022-09-24T14:47:28;20.00;88.70
16999;DHT22;10211;49.476;11.010;2022-09-24T14:49:55;19.80;88.40
16999;DHT22;10211;49.476;11.010;2022-09-24T14:52:28;19.60;89.80
16999;DHT22;10211;49.476;11.010;2022-09-24T14:55:15;19.40;89.30
16999;DHT22;10211;49.476;11.010;2022-09-24T14:57:43;19.20;90.10
16999;DHT22;10211;49.476;11.010;2022-09-24T15:00:22;19.00;91.10
16999;DHT22;10211;49.476;11.010;2022-09-24T15:02:55;18.90;90.70
16999;DHT22;10211;49.476;11.010;2022-09-24T15:05:24;18.80;91.10
16999;DHT22;10211;49.476;11.010;2022-09-24T15:07:53;18.70;90.90
16999;DHT22;10211;49.476;11.010;2022-09-24T15:10:33;18.60;91.40
16999;DHT22;10211;49.476;11.010;2022-09-24T15:13:00;18.60;91.50
16999;DHT22;10211;49.476;11.010;2022-09-24T15:15:37;18.60;92.00
16999;DHT22;10211;49.476;11.010;2022-09-24T15:18:08;18.60;92.00
16999;DHT22;10211;49.476;11.010;2022-09-24T15:20:36;18.50;92.60
16999;DHT22;10211;49.476;11.010;2022-09-24T15:23:03;18.40;92.60
16999;DHT22;10211;49.476;11.010;2022-09-24T15:25:29;18.30;92.50
16999;DHT22;10211;49.476;11.010;2022-09-24T15:27:56;18.20;92.90
16999;DHT22;10211;49.476;11.010;2022-09-24T15:30:23;18.10;92.60
16999;DHT22;10211;49.476;11.010;2022-09-24T15:32:50;18.10;92.80
16999;DHT22;10211;49.476;11.010;2022-09-24T15:35:18;18.00;92.90
16999;DHT22;10211;49.476;11.010;2022-09-24T15:37:46;18.00;93.00
16999;DHT22;10211;49.476;11.010;2022-09-24T15:40:18;18.00;93.00
16999;DHT22;10211;49.476;11.010;2022-09-24T15:42:47;18.00;93.20
16999;DHT22;10211;49.476;11.010;2022-09-24T15:45:18;18.10;93.70